Portada
METAR-TAF:

METAR-TAF

Aeropuertos :

Aeropuerto de Madeira

Funchal, Madeira, Portugal

latitud: 32-41-52N, longitud: 016-46-28W, altitud: 59 m

Observación

El informe se hizo hace 19 minutos, a las 20:00 UTC
Viento 9 kt del norte, variando entre norte-noroeste y noreste
Temperatura 18°C
Humedad 59%
Presión 1022 hPa
Visibilidad 10 km o más
Nubes dispersas a una altura de 1500 ft

METAR: LPMA 132000Z 01009KT 340V040 9999 SCT015 18/10 Q1022

Hora: 20:19 (20:19 UTC)

Pronóstico

El informe se hizo hace 3 horas y 19 minutos, a las 17:00 UTC
Pronóstico válido del 13 a las 18 UTC al 14 a las 18 UTC
Viento 12 kt del norte-noreste
Visibilidad 10 km o más
Nubes dispersas a una altura de 1500 ft
Evolucionando progresivamente
del 13 a las 21 UTC al 13 a las 24 UTC
Viento 5 kt con dirección variable

TAF: LPMA 131700Z 1318/1418 02012KT 9999 SCT015 BECMG 1321/1324 VRB05KT

Observaciones y pronósticos meteorológicos de más de 4000 aeropuertos (mensajes METAR y TAF).

Los puntos amarillos y rojos representan las estaciones disponibles.

Ponga el ratón en el punto deseado para ver el nombre de la estación.

Haga clic para ver las observaciones y los pronósticos meteorológicos.

Para cambiar el mapa : haga clic en los botones verdes con una cruz de color negro para hacer un zoom, en el botón verde con un guión para alejar o en las flechas verdes para mapas adyacentes.


METAR-TAF: